Time;durP1;ratioP1;P1;durP2;ratioP2;P2;SDS_P1;SDS_P2;PMS_P1;PMS_P2;Temp;Humidity;BMP_temperature;BMP_pressure;BME280_temperature;BME280_humidity;BME280_pressure;Samples;Min_cycle;Max_cycle;Signal;HPM_P1;HPM_P2
2021/12/29 00:02:18;;;;;;;1.77;0.70;;;10.80;55.50;;;;;;5148515;27;34151;-76
2021/12/29 00:04:44;;;;;;;0.82;0.45;;;10.90;55.60;;;;;;5148334;27;34216;-76
2021/12/29 00:07:11;;;;;;;3.17;0.98;;;10.80;55.60;;;;;;5167381;27;34345;-76
2021/12/29 00:09:40;;;;;;;2.22;0.50;;;10.80;55.60;;;;;;5149241;27;36217;-77
2021/12/29 00:12:07;;;;;;;5.85;0.82;;;10.80;55.70;;;;;;5148198;27;34220;-76
2021/12/29 00:14:34;;;;;;;2.08;0.70;;;10.80;55.70;;;;;;5114904;27;34403;-76
2021/12/29 00:17:00;;;;;;;2.65;0.73;;;10.80;55.70;;;;;;5148744;27;34476;-77
2021/12/29 00:19:27;;;;;;;4.05;0.70;;;10.70;55.70;;;;;;5167542;27;34522;-76
2021/12/29 00:21:53;;;;;;;4.47;0.70;;;10.80;55.70;;;;;;5148272;27;34276;-76
2021/12/29 00:24:19;;;;;;;2.58;0.70;;;10.70;56.40;;;;;;5167418;27;34293;-76
2021/12/29 00:26:45;;;;;;;2.28;0.47;;;10.80;55.70;;;;;;5148357;27;34453;-77
2021/12/29 00:29:11;;;;;;;1.67;0.80;;;10.70;55.70;;;;;;5147729;27;36247;-76
2021/12/29 00:31:37;;;;;;;2.10;0.70;;;10.80;56.40;;;;;;5131662;27;34206;-76
2021/12/29 00:34:04;;;;;;;2.17;0.60;;;10.80;55.70;;;;;;5131025;27;34297;-76
2021/12/29 00:36:30;;;;;;;1.17;0.40;;;10.80;55.70;;;;;;5149077;27;34328;-76
2021/12/29 00:38:56;;;;;;;3.25;0.80;;;10.70;55.70;;;;;;5147615;27;35673;-76
2021/12/29 00:41:22;;;;;;;3.30;0.70;;;10.80;55.70;;;;;;5148488;27;34344;-76
2021/12/29 00:43:48;;;;;;;2.20;0.60;;;10.80;55.60;;;;;;5148132;27;34254;-76
2021/12/29 00:46:17;;;;;;;0.77;0.68;;;10.80;56.20;;;;;;5148773;27;34287;-76
2021/12/29 00:48:47;;;;;;;2.67;0.60;;;10.70;55.30;;;;;;5147863;27;35592;-76
2021/12/29 00:51:14;;;;;;;2.55;0.70;;;10.80;55.60;;;;;;5148586;27;34268;-76
2021/12/29 00:53:41;;;;;;;2.90;0.60;;;10.70;55.50;;;;;;5167078;27;34333;-77
2021/12/29 00:56:08;;;;;;;1.17;0.70;;;10.70;55.50;;;;;;5150094;27;34216;-77
2021/12/29 00:58:34;;;;;;;2.20;0.65;;;10.70;55.50;;;;;;5131880;27;36562;-76
2021/12/29 01:01:03;;;;;;;0.70;0.40;;;10.70;55.60;;;;;;5169093;27;34255;-76
2021/12/29 01:03:29;;;;;;;1.80;0.60;;;10.70;55.60;;;;;;5134858;27;34185;-76
2021/12/29 01:05:56;;;;;;;4.43;0.70;;;10.70;55.60;;;;;;5151319;27;35778;-76
2021/12/29 01:08:22;;;;;;;1.00;0.50;;;10.70;55.70;;;;;;5151445;27;34607;-76
2021/12/29 01:10:49;;;;;;;0.35;0.35;;;10.70;55.60;;;;;;5151320;27;34059;-76
2021/12/29 01:13:19;;;;;;;2.22;0.70;;;10.70;55.60;;;;;;5152084;27;34222;-76
2021/12/29 01:15:58;;;;;;;2.03;0.70;;;10.70;55.50;;;;;;5152024;27;34176;-76
2021/12/29 01:18:28;;;;;;;3.47;0.50;;;10.70;55.50;;;;;;5153805;27;34743;-76
2021/12/29 01:20:55;;;;;;;0.52;0.30;;;10.70;55.50;;;;;;5151143;27;34228;-76
2021/12/29 01:23:21;;;;;;;1.13;0.50;;;10.70;55.60;;;;;;5151157;27;34361;-76
2021/12/29 01:25:48;;;;;;;5.82;0.82;;;10.70;55.50;;;;;;5151738;27;34529;-76
2021/12/29 01:28:14;;;;;;;0.70;0.60;;;10.70;55.40;;;;;;5170440;27;34221;-76
2021/12/29 01:30:40;;;;;;;2.35;0.57;;;10.70;55.40;;;;;;5151930;27;34180;-76
2021/12/29 01:33:06;;;;;;;2.97;0.77;;;10.70;55.30;;;;;;5151933;27;34177;-76
2021/12/29 01:35:33;;;;;;;2.35;0.75;;;10.70;55.30;;;;;;5169482;27;34168;-76
2021/12/29 01:38:01;;;;;;;0.70;0.50;;;10.80;55.30;;;;;;5133730;27;35977;-76
2021/12/29 01:40:28;;;;;;;1.63;0.65;;;10.80;55.20;;;;;;5151675;27;34180;-76
2021/12/29 01:42:55;;;;;;;0.57;0.50;;;10.80;55.90;;;;;;5151876;27;34471;-76
2021/12/29 01:45:22;;;;;;;1.65;0.65;;;10.80;55.20;;;;;;5134406;27;34486;-76
2021/12/29 01:47:48;;;;;;;1.00;0.60;;;10.80;55.20;;;;;;5151083;27;36032;-76
2021/12/29 01:50:15;;;;;;;1.15;0.68;;;10.80;55.20;;;;;;5152238;27;34400;-77
2021/12/29 01:52:42;;;;;;;1.70;0.55;;;10.80;55.20;;;;;;5150753;27;34299;-76
2021/12/29 01:55:13;;;;;;;3.40;0.75;;;10.70;55.20;;;;;;5151331;27;34190;-76
2021/12/29 01:57:39;;;;;;;1.67;0.55;;;10.80;55.20;;;;;;5133527;27;35805;-76
2021/12/29 02:00:10;;;;;;;2.20;0.52;;;10.70;55.30;;;;;;5133929;27;34100;-76
2021/12/29 02:02:37;;;;;;;2.60;0.60;;;10.70;55.20;;;;;;5151060;27;34435;-76
2021/12/29 02:05:03;;;;;;;1.52;0.40;;;10.70;55.30;;;;;;5151074;27;34118;-76
2021/12/29 02:07:30;;;;;;;1.38;0.73;;;10.70;55.40;;;;;;5169238;27;34359;-76
2021/12/29 02:09:56;;;;;;;0.57;0.52;;;10.70;55.50;;;;;;5133243;27;34272;-76
2021/12/29 02:12:23;;;;;;;0.57;0.50;;;10.60;55.40;;;;;;5149424;27;34115;-76
2021/12/29 02:14:49;;;;;;;2.05;0.57;;;10.60;56.20;;;;;;5150794;27;34130;-76
2021/12/29 02:17:15;;;;;;;0.65;0.50;;;10.60;55.60;;;;;;5150253;27;35549;-76
2021/12/29 02:19:46;;;;;;;0.63;0.57;;;10.60;55.70;;;;;;5149970;27;34241;-76
2021/12/29 02:22:27;;;;;;;0.82;0.57;;;10.60;55.60;;;;;;5169429;27;34143;-76
2021/12/29 02:25:06;;;;;;;2.40;0.70;;;10.60;55.60;;;;;;5153957;27;34342;-76
2021/12/29 02:27:35;;;;;;;2.10;0.60;;;10.60;55.60;;;;;;5151410;27;35506;-76
2021/12/29 02:30:02;;;;;;;2.45;0.70;;;10.60;55.60;;;;;;5134160;27;34341;-76
2021/12/29 02:32:28;;;;;;;2.75;0.80;;;10.60;55.60;;;;;;5169955;27;34191;-76
2021/12/29 02:34:54;;;;;;;1.73;0.55;;;10.60;55.60;;;;;;5150214;27;34118;-76
2021/12/29 02:37:22;;;;;;;0.85;0.73;;;10.60;55.60;;;;;;5167847;27;34972;-76
2021/12/29 02:39:50;;;;;;;1.48;0.70;;;10.60;55.60;;;;;;5148760;27;34379;-76
2021/12/29 02:42:22;;;;;;;0.75;0.70;;;10.60;55.60;;;;;;5148205;27;34284;-76
2021/12/29 02:44:49;;;;;;;1.70;0.70;;;10.60;55.50;;;;;;5131709;27;34214;-76
2021/12/29 02:47:15;;;;;;;1.50;0.70;;;10.60;55.70;;;;;;5148841;27;34402;-76
2021/12/29 02:49:41;;;;;;;3.45;0.77;;;10.60;55.70;;;;;;5148001;27;34361;-76
2021/12/29 02:52:09;;;;;;;0.98;0.68;;;10.60;55.60;;;;;;5166981;27;34282;-76
2021/12/29 02:54:35;;;;;;;0.80;0.60;;;10.50;55.60;;;;;;5166715;27;34275;-76
2021/12/29 02:57:01;;;;;;;2.63;1.00;;;10.60;55.70;;;;;;5147916;27;36036;-76
2021/12/29 02:59:28;;;;;;;2.92;0.98;;;10.60;55.60;;;;;;5148710;27;34157;-76
2021/12/29 03:01:54;;;;;;;1.95;0.73;;;10.60;55.60;;;;;;5147943;27;34520;-76
2021/12/29 03:04:20;;;;;;;1.92;0.73;;;10.60;55.60;;;;;;5166176;27;34332;-76
2021/12/29 03:06:46;;;;;;;1.92;0.80;;;10.60;55.60;;;;;;5147832;27;34932;-76
2021/12/29 03:09:16;;;;;;;2.85;0.98;;;10.60;55.50;;;;;;5148418;27;34363;-76
2021/12/29 03:11:43;;;;;;;2.83;1.23;;;10.60;55.60;;;;;;5147825;27;34048;-76
2021/12/29 03:14:11;;;;;;;1.55;0.80;;;10.60;55.50;;;;;;5148614;27;34226;-76
2021/12/29 03:16:38;;;;;;;1.70;0.98;;;10.60;55.60;;;;;;5147236;27;35803;-76
2021/12/29 03:19:05;;;;;;;1.67;0.60;;;10.60;55.60;;;;;;5147529;27;34264;-76
2021/12/29 03:21:33;;;;;;;3.97;1.00;;;10.60;55.60;;;;;;5166100;27;34284;-76
2021/12/29 03:23:59;;;;;;;1.90;1.10;;;10.60;55.60;;;;;;5166149;27;34664;-76
2021/12/29 03:26:26;;;;;;;1.17;0.85;;;10.60;55.60;;;;;;5130282;27;35849;-76
2021/12/29 03:28:53;;;;;;;2.42;0.93;;;10.60;55.70;;;;;;5147246;27;34288;-76
2021/12/29 03:31:21;;;;;;;2.53;1.10;;;10.60;55.70;;;;;;5130773;27;34229;-76
2021/12/29 03:33:48;;;;;;;2.92;1.17;;;10.60;55.70;;;;;;5166027;27;34514;-76
2021/12/29 03:36:15;;;;;;;1.55;0.80;;;10.50;55.70;;;;;;5148472;27;35676;-76
2021/12/29 03:38:42;;;;;;;0.83;0.67;;;10.50;55.70;;;;;;4927769;27;5690629;-76
2021/12/29 03:41:13;;;;;;;3.42;1.30;;;10.50;55.70;;;;;;5189382;27;34205;-76
2021/12/29 03:43:41;;;;;;;2.35;0.90;;;10.50;55.70;;;;;;5172226;27;34322;-76
2021/12/29 03:46:08;;;;;;;1.50;0.70;;;10.50;55.70;;;;;;5169467;27;35585;-76
2021/12/29 03:48:36;;;;;;;3.72;1.00;;;10.50;55.80;;;;;;5170089;27;34104;-76
2021/12/29 03:51:03;;;;;;;3.25;0.75;;;10.50;55.80;;;;;;5169820;27;34212;-76
2021/12/29 03:53:30;;;;;;;1.40;0.90;;;10.40;55.70;;;;;;5152480;27;34161;-76
2021/12/29 03:55:57;;;;;;;1.35;0.90;;;10.50;55.80;;;;;;5151104;27;36792;-76
2021/12/29 03:58:26;;;;;;;3.42;1.00;;;10.50;55.80;;;;;;5169496;27;34204;-76
2021/12/29 04:00:57;;;;;;;3.28;0.90;;;10.50;55.80;;;;;;5152346;27;34711;-76
2021/12/29 04:03:24;;;;;;;4.05;1.05;;;10.40;55.80;;;;;;5168658;27;34497;-76
2021/12/29 04:05:50;;;;;;;4.97;0.80;;;10.40;55.90;;;;;;5168110;27;35867;-76
2021/12/29 04:08:17;;;;;;;3.40;1.13;;;10.40;55.90;;;;;;5168459;27;34083;-76
2021/12/29 04:10:43;;;;;;;3.30;1.05;;;10.40;56.00;;;;;;5168429;27;34214;-77
2021/12/29 04:13:09;;;;;;;2.03;0.90;;;10.50;56.10;;;;;;5187222;27;34230;-76
2021/12/29 04:15:37;;;;;;;5.35;1.17;;;10.50;56.00;;;;;;5150664;27;35775;-76
2021/12/29 04:18:14;;;;;;;2.97;0.90;;;10.40;56.00;;;;;;5151338;27;34433;-76
2021/12/29 04:23:27;;;;;;;2.85;1.05;;;10.40;56.10;;;;;;5155346;27;34337;-76
2021/12/29 04:25:55;;;;;;;4.88;1.00;;;10.40;56.10;;;;;;5133738;27;35990;-76
2021/12/29 04:28:24;;;;;;;2.08;1.10;;;10.40;56.20;;;;;;5167947;27;34181;-76
2021/12/29 04:30:54;;;;;;;3.97;1.30;;;10.40;56.10;;;;;;5168257;27;34288;-76
2021/12/29 04:33:20;;;;;;;6.18;1.17;;;10.40;56.10;;;;;;5151211;27;34193;-76
2021/12/29 04:35:47;;;;;;;3.90;1.05;;;10.40;56.20;;;;;;5169940;27;35950;-76
2021/12/29 04:38:13;;;;;;;3.03;1.10;;;10.40;56.30;;;;;;5154257;27;34391;-76
2021/12/29 04:40:40;;;;;;;2.35;0.93;;;10.30;56.30;;;;;;5171574;27;34257;-76
2021/12/29 04:43:06;;;;;;;5.05;1.65;;;10.30;56.30;;;;;;5190406;27;34823;-76
2021/12/29 04:45:32;;;;;;;3.63;1.20;;;10.30;56.30;;;;;;5189703;27;34106;-76
2021/12/29 04:48:00;;;;;;;2.47;0.90;;;10.30;56.30;;;;;;5171623;27;34140;-76
2021/12/29 04:50:27;;;;;;;7.25;1.13;;;10.30;56.30;;;;;;5172747;27;34217;-76
2021/12/29 04:52:56;;;;;;;3.83;1.40;;;10.30;56.30;;;;;;5173663;27;34192;-77
2021/12/29 04:55:23;;;;;;;4.13;1.10;;;10.30;56.30;;;;;;5171257;27;35916;-76
2021/12/29 04:57:49;;;;;;;3.50;0.98;;;10.30;56.30;;;;;;5171539;27;34535;-76
2021/12/29 05:00:16;;;;;;;1.85;1.00;;;10.30;56.30;;;;;;5189740;27;34159;-76
2021/12/29 05:02:43;;;;;;;3.13;1.00;;;10.30;56.30;;;;;;5170952;27;34472;-76
2021/12/29 05:05:37;;;;;;;3.20;1.23;;;10.30;56.30;;;;;;5171562;27;35727;-76
2021/12/29 05:10:37;;;;;;;2.55;1.17;;;10.30;56.30;;;;;;5173698;27;34258;-76
2021/12/29 05:13:04;;;;;;;5.15;1.40;;;10.30;56.30;;;;;;5206881;27;34182;-76
2021/12/29 05:15:30;;;;;;;2.53;1.25;;;10.30;56.20;;;;;;5170953;27;35587;-76
2021/12/29 05:17:58;;;;;;;2.53;1.13;;;10.30;56.10;;;;;;5170962;27;33714;-76
2021/12/29 05:20:27;;;;;;;4.68;1.23;;;10.30;56.20;;;;;;5189634;27;34268;-76
2021/12/29 05:22:54;;;;;;;3.40;0.93;;;10.30;56.10;;;;;;5171443;27;34561;-76
2021/12/29 05:25:20;;;;;;;3.45;1.05;;;10.30;56.20;;;;;;5153736;27;35442;-76
2021/12/29 05:27:47;;;;;;;0.95;0.75;;;10.30;56.00;;;;;;5170387;27;34247;-76
2021/12/29 05:30:13;;;;;;;3.83;1.05;;;10.30;56.00;;;;;;5189827;27;34239;-76
2021/12/29 05:32:39;;;;;;;3.17;0.90;;;10.30;55.90;;;;;;5171119;27;34601;-76
2021/12/29 05:35:06;;;;;;;3.85;0.90;;;10.30;55.80;;;;;;5170822;27;37007;-76
2021/12/29 05:37:32;;;;;;;4.50;1.13;;;10.30;55.70;;;;;;5153650;27;34240;-75
2021/12/29 05:39:59;;;;;;;2.60;1.08;;;10.30;55.70;;;;;;5190412;27;34219;-76
2021/12/29 05:42:25;;;;;;;4.95;0.98;;;10.30;55.60;;;;;;5171654;27;34284;-76
2021/12/29 05:44:51;;;;;;;1.88;0.90;;;10.30;55.50;;;;;;5170543;27;36004;-76
2021/12/29 05:47:17;;;;;;;1.65;0.60;;;10.30;55.50;;;;;;5131948;27;34114;-75
2021/12/29 05:49:43;;;;;;;4.05;0.75;;;10.30;55.40;;;;;;5145527;27;34159;-76
2021/12/29 05:52:10;;;;;;;1.80;0.77;;;10.40;55.40;;;;;;5189668;27;34181;-76
2021/12/29 05:54:36;;;;;;;2.03;0.68;;;10.30;55.30;;;;;;5188894;27;34738;-76
2021/12/29 05:57:02;;;;;;;3.35;0.70;;;10.30;55.40;;;;;;5169835;27;34246;-76
2021/12/29 05:59:29;;;;;;;1.27;0.80;;;10.30;55.30;;;;;;5153166;27;34215;-76
2021/12/29 06:01:55;;;;;;;2.53;0.88;;;10.30;55.20;;;;;;5189158;27;34031;-76
2021/12/29 06:04:21;;;;;;;2.67;0.75;;;10.40;55.30;;;;;;5170405;27;35665;-77
2021/12/29 06:06:47;;;;;;;2.63;0.82;;;10.30;55.20;;;;;;5139134;27;34153;-76
2021/12/29 06:09:14;;;;;;;5.45;0.90;;;10.30;55.20;;;;;;5135793;27;34156;-76
2021/12/29 06:11:40;;;;;;;3.53;0.80;;;10.30;55.20;;;;;;5170799;27;34291;-76
2021/12/29 06:14:06;;;;;;;3.42;0.70;;;10.40;55.10;;;;;;5170120;27;34269;-76
2021/12/29 06:16:32;;;;;;;2.28;0.98;;;10.30;55.10;;;;;;5135130;27;34352;-76
2021/12/29 06:18:58;;;;;;;3.33;0.80;;;10.30;55.10;;;;;;5170398;27;34358;-76
2021/12/29 06:21:24;;;;;;;0.65;0.47;;;10.30;55.10;;;;;;5205782;27;34580;-76
2021/12/29 06:23:50;;;;;;;2.65;0.90;;;10.30;55.10;;;;;;5152341;27;36023;-76
2021/12/29 06:26:16;;;;;;;3.47;0.82;;;10.30;55.10;;;;;;5188451;27;34138;-76
2021/12/29 06:28:44;;;;;;;3.13;0.70;;;10.30;55.10;;;;;;5169404;27;34207;-76
2021/12/29 06:31:10;;;;;;;4.07;0.88;;;10.30;55.10;;;;;;5170382;27;34152;-76
2021/12/29 06:33:36;;;;;;;5.15;0.82;;;10.30;55.20;;;;;;5131376;27;36698;-76
2021/12/29 06:36:02;;;;;;;7.75;0.70;;;10.30;55.10;;;;;;5187067;27;34174;-76
2021/12/29 06:38:28;;;;;;;1.05;0.55;;;10.30;55.20;;;;;;5169354;27;34379;-76
2021/12/29 06:40:54;;;;;;;1.92;0.85;;;10.20;55.10;;;;;;5169846;27;34373;-76
2021/12/29 06:43:20;;;;;;;3.53;1.00;;;10.20;55.10;;;;;;5169899;27;36563;-76
2021/12/29 06:45:46;;;;;;;1.80;1.00;;;10.20;55.10;;;;;;5135069;27;34295;-76
2021/12/29 06:48:12;;;;;;;5.35;1.20;;;10.20;55.10;;;;;;5152372;27;34242;-76
2021/12/29 06:50:38;;;;;;;3.22;0.88;;;10.20;55.10;;;;;;5188788;27;34101;-76
2021/12/29 06:53:04;;;;;;;4.03;1.08;;;10.20;55.10;;;;;;5170383;27;34256;-76
2021/12/29 06:55:31;;;;;;;3.13;1.00;;;10.20;55.10;;;;;;5189312;27;34086;-76
2021/12/29 06:57:57;;;;;;;3.50;1.38;;;10.10;55.10;;;;;;5151795;27;34516;-76
2021/12/29 07:00:23;;;;;;;2.92;1.10;;;10.10;55.10;;;;;;5169882;27;34502;-76
2021/12/29 07:02:49;;;;;;;3.00;1.08;;;10.10;55.10;;;;;;5152810;27;35792;-76
2021/12/29 07:05:15;;;;;;;2.45;0.85;;;10.10;55.10;;;;;;5169814;27;34305;-76
2021/12/29 07:07:42;;;;;;;1.58;0.90;;;10.10;55.20;;;;;;5204857;27;34133;-76
2021/12/29 07:10:09;;;;;;;4.65;0.82;;;10.10;55.20;;;;;;5151294;27;34134;-76
2021/12/29 07:12:35;;;;;;;3.42;1.00;;;10.10;55.20;;;;;;5151532;27;35669;-76
2021/12/29 07:15:01;;;;;;;4.25;1.00;;;10.00;55.10;;;;;;5187139;27;34178;-76
2021/12/29 07:17:27;;;;;;;4.18;0.95;;;10.00;55.20;;;;;;5187459;27;34111;-76
2021/12/29 07:19:54;;;;;;;3.58;1.00;;;9.90;55.20;;;;;;5169588;27;34327;-76
2021/12/29 07:22:20;;;;;;;4.13;0.80;;;9.90;55.30;;;;;;5169738;27;35058;-76
2021/12/29 07:24:46;;;;;;;6.60;1.15;;;9.80;55.30;;;;;;5188116;27;34120;-76
2021/12/29 07:27:12;;;;;;;2.45;0.98;;;9.80;55.30;;;;;;5169953;27;34581;-76
2021/12/29 07:29:38;;;;;;;4.13;0.80;;;9.70;55.40;;;;;;5169309;27;34038;-76
2021/12/29 07:32:05;;;;;;;3.33;1.17;;;9.70;55.50;;;;;;5187912;27;34475;-76
2021/12/29 07:34:31;;;;;;;5.50;1.23;;;9.70;55.50;;;;;;5187827;27;34337;-76
2021/12/29 07:36:57;;;;;;;2.78;0.95;;;9.60;55.50;;;;;;5169893;27;34417;-77
2021/12/29 07:39:24;;;;;;;4.60;1.20;;;9.70;55.60;;;;;;5161945;27;34351;-76
2021/12/29 07:41:51;;;;;;;6.40;1.48;;;9.70;55.60;;;;;;5149916;27;34923;-77
2021/12/29 07:44:18;;;;;;;3.70;1.35;;;9.60;55.50;;;;;;5168637;27;34325;-77
2021/12/29 07:46:48;;;;;;;2.58;1.23;;;9.60;55.50;;;;;;5167885;27;34161;-76
2021/12/29 07:49:14;;;;;;;2.80;0.90;;;9.70;55.60;;;;;;5130907;27;34577;-76
2021/12/29 07:51:41;;;;;;;10.45;1.20;;;9.60;55.50;;;;;;5147249;27;35942;-76
2021/12/29 07:54:08;;;;;;;1.85;1.10;;;9.70;55.60;;;;;;5130347;27;34423;-76
2021/12/29 07:56:34;;;;;;;4.68;1.10;;;9.70;55.60;;;;;;5166649;27;34407;-76
2021/12/29 07:59:00;;;;;;;2.50;1.08;;;9.60;55.50;;;;;;5166447;27;34398;-76
2021/12/29 08:01:26;;;;;;;5.18;1.27;;;9.60;55.50;;;;;;5147673;27;35785;-76
2021/12/29 08:03:52;;;;;;;2.78;0.80;;;9.60;55.50;;;;;;5147082;27;34456;-76
2021/12/29 08:06:20;;;;;;;4.32;0.98;;;9.60;55.60;;;;;;5147548;27;34274;-76
2021/12/29 08:08:46;;;;;;;2.50;1.13;;;9.60;55.60;;;;;;5147862;27;34048;-76
2021/12/29 08:11:12;;;;;;;8.38;1.35;;;9.70;55.70;;;;;;5165615;27;34262;-76
2021/12/29 08:13:38;;;;;;;5.35;1.73;;;9.70;55.70;;;;;;5129641;27;34353;-76
2021/12/29 08:16:06;;;;;;;1.70;1.15;;;9.70;55.70;;;;;;5129773;27;34184;-76
2021/12/29 08:18:32;;;;;;;3.92;1.45;;;9.80;55.60;;;;;;5129644;27;34209;-76
2021/12/29 08:20:58;;;;;;;4.72;1.35;;;9.80;55.70;;;;;;5161099;27;34874;-76
2021/12/29 08:23:24;;;;;;;4.22;1.65;;;9.80;55.70;;;;;;5130255;27;34209;-76
2021/12/29 08:25:50;;;;;;;4.28;1.15;;;9.80;55.70;;;;;;5146834;27;34212;-76
2021/12/29 08:28:17;;;;;;;6.25;1.55;;;9.90;55.80;;;;;;5147282;27;34105;-76
2021/12/29 08:30:44;;;;;;;6.05;1.60;;;9.90;55.80;;;;;;5147373;27;35844;-76
2021/12/29 08:33:10;;;;;;;5.97;1.45;;;9.90;55.70;;;;;;5165929;27;34165;-76
2021/12/29 08:35:36;;;;;;;7.90;1.50;;;10.00;55.70;;;;;;5166016;27;34217;-76
2021/12/29 08:38:03;;;;;;;2.65;1.05;;;10.00;56.40;;;;;;5147322;27;34228;-76
2021/12/29 08:40:29;;;;;;;3.08;1.20;;;10.10;55.70;;;;;;5183357;27;35198;-76
2021/12/29 08:42:58;;;;;;;5.05;1.38;;;10.00;55.70;;;;;;5167542;27;34322;-76
2021/12/29 08:45:26;;;;;;;5.18;1.75;;;10.10;55.70;;;;;;5186765;27;34437;-76
2021/12/29 08:47:55;;;;;;;10.23;1.80;;;10.10;55.80;;;;;;5150301;27;34425;-76
2021/12/29 08:50:22;;;;;;;3.88;1.50;;;10.10;55.70;;;;;;5167748;27;35551;-76
2021/12/29 08:52:49;;;;;;;4.28;1.50;;;10.20;55.70;;;;;;5169057;27;34107;-76
2021/12/29 08:55:15;;;;;;;5.95;1.60;;;10.20;55.70;;;;;;5167759;27;34418;-76
2021/12/29 08:57:42;;;;;;;6.13;1.20;;;10.20;55.70;;;;;;5167338;27;34336;-76
2021/12/29 09:00:11;;;;;;;3.25;1.50;;;10.20;55.80;;;;;;5132783;27;36161;-76
2021/12/29 09:02:38;;;;;;;2.17;1.15;;;10.30;55.90;;;;;;5169468;27;34283;-76
2021/12/29 09:05:05;;;;;;;3.25;1.17;;;10.30;55.80;;;;;;5169811;27;34202;-77
2021/12/29 09:07:31;;;;;;;5.85;1.33;;;10.30;55.70;;;;;;5151762;27;34421;-78
2021/12/29 09:09:58;;;;;;;7.22;1.50;;;10.30;55.80;;;;;;5168329;27;35962;-76
2021/12/29 09:12:24;;;;;;;3.53;1.30;;;10.30;55.70;;;;;;5186554;27;34215;-76
2021/12/29 09:14:50;;;;;;;5.38;1.20;;;10.30;55.70;;;;;;5167346;27;34165;-76
2021/12/29 09:17:17;;;;;;;4.35;1.48;;;10.40;55.80;;;;;;5150364;27;34278;-76
2021/12/29 09:19:44;;;;;;;5.68;1.10;;;10.40;55.80;;;;;;5149946;27;36400;-76
2021/12/29 09:22:12;;;;;;;5.38;1.35;;;10.40;55.80;;;;;;5171125;27;34169;-76
2021/12/29 09:24:39;;;;;;;3.63;1.33;;;10.40;55.80;;;;;;5170526;27;34416;-76
2021/12/29 09:27:06;;;;;;;4.55;1.13;;;10.40;55.90;;;;;;5189903;27;34411;-76
2021/12/29 09:29:34;;;;;;;2.40;1.20;;;10.40;55.90;;;;;;5153384;27;35176;-76
2021/12/29 09:32:01;;;;;;;4.90;1.35;;;10.40;55.90;;;;;;5170992;27;34253;-76
2021/12/29 09:34:27;;;;;;;4.15;1.60;;;10.40;56.00;;;;;;5189475;27;34218;-76
2021/12/29 09:36:54;;;;;;;3.70;1.15;;;10.40;56.10;;;;;;5189627;27;34302;-76
2021/12/29 09:39:21;;;;;;;2.85;1.40;;;10.40;56.10;;;;;;5162559;27;35838;-76
2021/12/29 09:41:48;;;;;;;5.95;1.33;;;10.40;56.20;;;;;;5149282;27;34299;-76
2021/12/29 09:44:14;;;;;;;4.10;1.55;;;10.40;56.30;;;;;;5132803;27;34889;-76
2021/12/29 09:46:41;;;;;;;4.05;1.35;;;10.40;56.40;;;;;;5149549;27;34445;-76
2021/12/29 09:49:07;;;;;;;3.72;1.20;;;10.40;56.30;;;;;;5168099;27;35373;-76
2021/12/29 09:51:33;;;;;;;2.53;1.58;;;10.40;56.50;;;;;;5149519;27;34378;-76
2021/12/29 09:53:59;;;;;;;3.67;1.55;;;10.40;56.60;;;;;;5149268;27;34288;-76
2021/12/29 09:56:27;;;;;;;4.70;2.05;;;10.30;56.60;;;;;;5149268;27;34113;-76
2021/12/29 09:58:55;;;;;;;3.03;1.40;;;10.40;56.70;;;;;;5148536;27;36462;-76
2021/12/29 10:01:21;;;;;;;3.30;1.50;;;10.40;56.70;;;;;;5149357;27;34290;-76
2021/12/29 10:03:47;;;;;;;4.20;1.20;;;10.40;56.70;;;;;;5125655;27;34207;-75
2021/12/29 10:06:15;;;;;;;4.97;1.98;;;10.40;56.80;;;;;;5131673;27;34369;-76
2021/12/29 10:08:44;;;;;;;2.25;1.30;;;10.40;56.80;;;;;;5098456;27;36710;-76
2021/12/29 10:11:15;;;;;;;3.45;1.65;;;10.40;56.80;;;;;;5132515;27;34439;-76
2021/12/29 10:13:45;;;;;;;4.13;1.67;;;10.50;56.90;;;;;;5149286;27;34152;-76
2021/12/29 10:16:19;;;;;;;2.50;1.70;;;10.40;56.80;;;;;;5132166;27;34333;-75
2021/12/29 10:18:48;;;;;;;5.32;1.75;;;10.40;56.90;;;;;;5132032;27;35972;-75
2021/12/29 10:21:17;;;;;;;3.88;2.00;;;10.50;57.00;;;;;;5149111;27;34431;-76
2021/12/29 10:23:47;;;;;;;4.32;1.88;;;10.50;57.00;;;;;;5167188;27;34370;-75
2021/12/29 10:26:19;;;;;;;5.00;1.75;;;10.50;56.90;;;;;;5131687;27;34281;-75
2021/12/29 10:28:48;;;;;;;2.85;1.83;;;10.50;56.90;;;;;;5148818;27;36593;-75
2021/12/29 10:31:19;;;;;;;4.55;1.90;;;10.50;57.00;;;;;;5131955;27;34260;-75
2021/12/29 10:33:51;;;;;;;2.63;1.73;;;10.50;57.00;;;;;;5130777;27;34119;-75
2021/12/29 10:36:22;;;;;;;3.90;1.52;;;10.60;57.10;;;;;;5149107;27;34227;-75
2021/12/29 10:38:58;;;;;;;3.83;1.85;;;10.60;57.20;;;;;;5169940;27;34329;-75
2021/12/29 10:41:26;;;;;;;3.30;1.77;;;10.60;57.10;;;;;;5188688;27;34268;-75
2021/12/29 10:43:57;;;;;;;5.53;1.60;;;10.60;57.10;;;;;;5170148;27;34333;-75
2021/12/29 10:46:26;;;;;;;1.98;1.70;;;10.60;57.10;;;;;;5135571;27;34346;-75
2021/12/29 10:48:54;;;;;;;3.00;1.60;;;10.60;57.20;;;;;;5188263;27;34320;-75
2021/12/29 10:51:27;;;;;;;3.03;1.70;;;10.60;57.10;;;;;;5169718;27;34218;-76
2021/12/29 10:54:02;;;;;;;5.53;1.80;;;10.60;57.30;;;;;;5170600;27;34024;-76
2021/12/29 10:56:29;;;;;;;3.42;1.65;;;10.70;57.30;;;;;;5170907;27;34191;-76
2021/12/29 10:58:55;;;;;;;3.78;1.45;;;10.70;57.40;;;;;;5189784;27;34534;-76
2021/12/29 11:01:23;;;;;;;2.78;1.65;;;10.70;57.40;;;;;;5170628;27;34166;-76
2021/12/29 11:03:55;;;;;;;1.30;1.20;;;10.70;57.40;;;;;;5169816;27;34233;-76
2021/12/29 11:06:24;;;;;;;1.95;1.38;;;10.70;57.40;;;;;;5169615;27;34319;-76
2021/12/29 11:08:55;;;;;;;1.77;1.10;;;10.70;57.40;;;;;;5151915;27;35621;-76
2021/12/29 11:11:38;;;;;;;5.57;1.88;;;10.70;57.50;;;;;;5169797;27;34259;-76
2021/12/29 11:14:23;;;;;;;2.40;1.80;;;10.80;57.80;;;;;;5142521;27;34273;-76
2021/12/29 11:17:02;;;;;;;2.40;1.20;;;10.80;57.50;;;;;;5159672;27;34098;-76
2021/12/29 11:19:29;;;;;;;2.35;1.23;;;10.80;57.90;;;;;;5152090;27;35785;-76
2021/12/29 11:22:08;;;;;;;3.20;1.40;;;10.80;57.60;;;;;;5187300;27;34292;-76
2021/12/29 11:24:35;;;;;;;4.68;1.75;;;10.80;57.80;;;;;;5187787;27;34484;-77
2021/12/29 11:27:13;;;;;;;4.10;1.48;;;10.80;58.20;;;;;;5204566;27;34583;-76
2021/12/29 11:29:56;;;;;;;3.67;2.05;;;10.90;57.60;;;;;;5152794;27;35813;-75
2021/12/29 11:32:25;;;;;;;3.10;1.73;;;10.90;58.50;;;;;;5169813;27;34221;-76
2021/12/29 11:35:03;;;;;;;2.40;1.60;;;10.90;57.60;;;;;;5170190;27;34066;-76
2021/12/29 11:37:30;;;;;;;3.13;1.65;;;11.00;57.70;;;;;;5169269;27;34730;-76
2021/12/29 11:39:56;;;;;;;2.15;1.67;;;10.90;57.50;;;;;;5187611;27;34437;-76
2021/12/29 11:42:22;;;;;;;4.07;1.50;;;11.00;57.50;;;;;;5168915;27;34176;-76
2021/12/29 11:44:48;;;;;;;2.55;1.20;;;11.00;57.50;;;;;;5168325;27;34325;-76
2021/12/29 11:47:15;;;;;;;6.43;1.55;;;11.00;57.50;;;;;;5188211;27;34382;-75
2021/12/29 11:49:41;;;;;;;4.07;1.00;;;11.00;57.50;;;;;;5168760;27;35596;-76
2021/12/29 11:52:31;;;;;;;2.92;1.15;;;11.00;58.20;;;;;;5169162;27;34263;-75
2021/12/29 11:55:24;;;;;;;3.63;1.08;;;11.10;57.80;;;;;;5136505;27;34112;-76
2021/12/29 11:57:50;;;;;;;1.27;1.05;;;11.00;57.70;;;;;;5168850;27;34493;-76
2021/12/29 12:00:19;;;;;;;1.42;1.23;;;11.00;57.60;;;;;;5168895;27;35774;-76
2021/12/29 12:02:47;;;;;;;1.75;0.95;;;11.00;57.50;;;;;;5169161;27;34167;-76
2021/12/29 12:05:18;;;;;;;1.67;1.10;;;11.00;57.60;;;;;;5133978;27;34184;-76
2021/12/29 12:07:45;;;;;;;1.98;1.30;;;11.00;57.70;;;;;;5151518;27;34291;-76
2021/12/29 12:10:25;;;;;;;1.73;1.10;;;11.00;57.70;;;;;;5144959;27;37016;-76
2021/12/29 12:12:53;;;;;;;1.55;1.20;;;11.00;57.70;;;;;;5143812;27;34220;-76
2021/12/29 12:15:30;;;;;;;2.28;1.20;;;11.00;57.50;;;;;;5074183;27;34417;-76
2021/12/29 12:18:06;;;;;;;2.17;1.10;;;11.10;57.70;;;;;;5121884;27;34400;-76
2021/12/29 12:20:46;;;;;;;3.53;1.05;;;11.10;57.60;;;;;;5126478;27;35732;-76
2021/12/29 12:23:29;;;;;;;1.55;1.00;;;11.00;57.60;;;;;;5144262;27;34187;-76
2021/12/29 12:26:09;;;;;;;3.47;1.65;;;11.10;57.70;;;;;;5162125;27;34460;-76
2021/12/29 12:28:51;;;;;;;1.45;0.85;;;11.00;57.60;;;;;;5110156;27;34159;-76
2021/12/29 12:31:32;;;;;;;2.47;0.95;;;11.10;57.90;;;;;;5160970;27;35700;-76
2021/12/29 12:34:10;;;;;;;3.38;1.15;;;11.10;57.70;;;;;;5160968;27;34227;-76
2021/12/29 12:36:39;;;;;;;1.33;1.15;;;11.10;57.60;;;;;;5127466;27;34099;-76
2021/12/29 12:39:10;;;;;;;1.98;0.80;;;11.10;57.60;;;;;;5151043;27;34124;-76
2021/12/29 12:41:39;;;;;;;1.73;0.95;;;11.10;57.60;;;;;;5182966;27;35513;-76
2021/12/29 12:44:06;;;;;;;1.95;0.82;;;11.10;57.50;;;;;;5164917;27;34202;-77
2021/12/29 12:46:38;;;;;;;1.10;0.98;;;11.10;57.50;;;;;;5182117;27;34151;-76
2021/12/29 12:49:21;;;;;;;1.83;0.80;;;11.10;57.50;;;;;;5165756;27;34095;-76
2021/12/29 12:52:05;;;;;;;1.23;0.80;;;11.10;57.60;;;;;;5181451;27;36497;-76
2021/12/29 12:54:38;;;;;;;1.40;0.57;;;11.10;57.40;;;;;;5164681;27;34269;-77
2021/12/29 12:57:04;;;;;;;1.67;0.90;;;11.10;57.40;;;;;;5132060;27;34170;-76
2021/12/29 12:59:36;;;;;;;0.60;0.60;;;11.10;57.40;;;;;;5186404;27;34384;-76